Time;durP1;ratioP1;P1;durP2;ratioP2;P2;SDS_P1;SDS_P2;PMS_P1;PMS_P2;Temp;Humidity;BMP_temperature;BMP_pressure;BME280_temperature;BME280_humidity;BME280_pressure;Samples;Min_cycle;Max_cycle;Signal;HPM_P1;HPM_P2
2021/08/01 00:00:29;;;;;;;5.88;3.92;;;;;;;15.73;72.45;99033.75;5011721;28;20397;-66
2021/08/01 00:02:55;;;;;;;8.18;4.75;;;;;;;15.75;72.67;99029.13;5012095;28;20469;-67
2021/08/01 00:05:21;;;;;;;8.90;3.95;;;;;;;15.75;72.47;99026.47;5012021;28;20124;-67
2021/08/01 00:07:46;;;;;;;5.97;3.50;;;;;;;15.72;72.79;99026.72;5011574;28;20128;-67
2021/08/01 00:10:11;;;;;;;8.15;5.05;;;;;;;15.69;72.99;99017.16;5012032;28;20065;-67
2021/08/01 00:12:37;;;;;;;7.07;5.20;;;;;;;15.67;73.16;99016.44;5012687;28;20466;-66
2021/08/01 00:15:02;;;;;;;9.10;4.32;;;;;;;15.66;73.34;99009.44;5012679;28;20665;-66
2021/08/01 00:17:28;;;;;;;7.95;5.00;;;;;;;15.63;73.18;99013.22;5013592;28;20694;-66
2021/08/01 00:19:53;;;;;;;6.93;4.35;;;;;;;15.64;73.46;99011.38;5031627;28;20041;-66
2021/08/01 00:22:20;;;;;;;8.57;5.32;;;;;;;15.61;73.40;99016.97;5030135;28;20033;-66
2021/08/01 00:24:46;;;;;;;8.20;4.57;;;;;;;15.61;73.58;99017.81;5031311;28;20468;-67
2021/08/01 00:27:11;;;;;;;5.32;4.05;;;;;;;15.61;73.66;99009.81;5030945;28;20164;-67
2021/08/01 00:29:37;;;;;;;9.80;5.72;;;;;;;15.57;73.93;99015.50;5020300;28;20030;-68
2021/08/01 00:32:03;;;;;;;6.68;4.10;;;;;;;15.52;74.37;99005.25;5010616;28;20040;-67
2021/08/01 00:34:29;;;;;;;6.53;4.75;;;;;;;15.53;74.34;98999.00;5011416;28;20117;-67
2021/08/01 00:36:54;;;;;;;6.07;4.75;;;;;;;15.47;74.60;98996.84;5010718;28;20121;-67
2021/08/01 00:39:20;;;;;;;6.88;5.30;;;;;;;15.44;74.85;98992.63;5011032;28;20029;-68
2021/08/01 00:41:45;;;;;;;6.18;5.18;;;;;;;15.43;75.05;98993.59;5011157;28;20168;-68
2021/08/01 00:44:11;;;;;;;6.25;4.80;;;;;;;15.42;75.12;98999.03;5011238;28;20030;-68
2021/08/01 00:46:38;;;;;;;6.45;5.22;;;;;;;15.38;75.13;98993.13;5010626;28;20029;-67
2021/08/01 00:49:04;;;;;;;6.93;5.03;;;;;;;15.35;75.29;98982.75;5011297;28;20119;-68
2021/08/01 00:51:30;;;;;;;9.25;5.15;;;;;;;15.34;75.47;98990.84;5011124;28;20526;-68
2021/08/01 00:53:59;;;;;;;8.02;5.10;;;;;;;15.31;75.42;98980.44;5011042;28;20409;-68
2021/08/01 00:56:25;;;;;;;8.10;4.50;;;;;;;15.28;75.19;98989.50;5010312;28;20030;-68
2021/08/01 00:58:50;;;;;;;8.63;5.47;;;;;;;15.25;75.45;98987.94;5010650;28;20040;-68
2021/08/01 01:01:19;;;;;;;7.28;5.80;;;;;;;15.21;75.46;98988.31;4988317;28;20030;-67
2021/08/01 01:03:53;;;;;;;11.45;5.93;;;;;;;15.16;75.71;98987.84;5010499;28;20371;-68
2021/08/01 01:06:25;;;;;;;8.33;5.27;;;;;;;15.14;75.94;98987.16;5010398;28;20042;-68
2021/08/01 01:09:00;;;;;;;7.50;5.93;;;;;;;15.10;75.89;98989.19;5010619;28;20269;-68
2021/08/01 01:11:30;;;;;;;7.83;5.57;;;;;;;15.11;76.10;98990.91;5008890;28;20050;-68
2021/08/01 01:13:57;;;;;;;8.60;5.35;;;;;;;15.09;76.00;98990.19;5010370;28;20041;-67
2021/08/01 01:16:25;;;;;;;5.50;4.70;;;;;;;15.08;75.86;98993.78;5008547;28;20042;-68
2021/08/01 01:18:58;;;;;;;5.65;4.40;;;;;;;15.09;75.85;98989.31;5011030;28;20053;-68
2021/08/01 01:21:51;;;;;;;7.97;4.63;;;;;;;15.03;75.86;98990.66;5009753;28;20532;-68
2021/08/01 01:24:25;;;;;;;8.82;5.00;;;;;;;14.99;76.16;98987.44;5009424;28;20038;-68
2021/08/01 01:27:09;;;;;;;8.38;6.03;;;;;;;14.98;76.41;98995.50;5009440;28;20506;-68
2021/08/01 01:29:45;;;;;;;8.45;5.53;;;;;;;15.00;76.26;98996.22;5010338;28;20146;-68
2021/08/01 01:32:34;;;;;;;7.05;4.78;;;;;;;15.00;76.45;98983.78;5010451;28;20046;-68
2021/08/01 01:35:05;;;;;;;8.82;5.18;;;;;;;15.02;76.58;98991.66;5010755;28;20449;-68
2021/08/01 01:37:32;;;;;;;7.85;6.03;;;;;;;15.01;76.51;98989.94;5009609;28;20084;-68
2021/08/01 01:40:02;;;;;;;6.18;5.57;;;;;;;15.02;76.07;98991.66;5010239;28;20041;-68
2021/08/01 01:42:29;;;;;;;9.15;5.50;;;;;;;15.02;76.42;98999.59;5010330;28;20053;-68
2021/08/01 01:44:57;;;;;;;9.15;6.05;;;;;;;14.99;76.55;98998.03;5010697;28;20045;-68
2021/08/01 01:47:23;;;;;;;10.60;7.03;;;;;;;15.00;76.58;98989.09;5008986;28;20058;-68
2021/08/01 01:49:53;;;;;;;8.35;5.30;;;;;;;15.02;76.26;98989.81;5010606;28;20404;-68
2021/08/01 01:52:21;;;;;;;7.15;5.65;;;;;;;15.02;76.48;99003.09;5009914;28;20508;-68
2021/08/01 01:54:46;;;;;;;7.32;5.45;;;;;;;15.05;76.54;99006.47;5010096;28;20038;-68
2021/08/01 01:57:12;;;;;;;6.90;5.15;;;;;;;15.04;76.46;99008.28;5009222;28;20098;-68
2021/08/01 01:59:39;;;;;;;8.10;5.25;;;;;;;15.04;76.47;99008.28;5010115;28;20056;-68
2021/08/01 02:02:08;;;;;;;6.25;4.78;;;;;;;15.03;76.34;99004.78;5010257;28;20034;-68
2021/08/01 02:04:35;;;;;;;7.93;6.03;;;;;;;15.02;76.28;99013.72;5009903;28;20026;-68
2021/08/01 02:07:01;;;;;;;7.10;5.40;;;;;;;14.99;76.52;99019.28;5009465;28;20042;-68
2021/08/01 02:09:36;;;;;;;7.03;4.47;;;;;;;14.99;76.87;99007.81;5009986;28;20030;-67
2021/08/01 02:12:15;;;;;;;7.53;5.88;;;;;;;15.01;76.41;99005.88;5009442;28;20045;-68
2021/08/01 02:14:49;;;;;;;13.25;5.30;;;;;;;15.02;76.51;99005.75;5029484;28;20568;-67
2021/08/01 02:17:19;;;;;;;8.02;6.47;;;;;;;15.07;76.76;99000.06;5028584;28;20033;-67
2021/08/01 02:19:48;;;;;;;8.65;5.45;;;;;;;15.10;76.49;99004.28;5029583;28;20493;-67
2021/08/01 02:22:15;;;;;;;7.72;6.38;;;;;;;15.11;76.68;99003.31;5027411;28;20041;-67
2021/08/01 02:24:42;;;;;;;10.48;5.85;;;;;;;15.10;76.55;98997.16;5029413;28;20394;-67
2021/08/01 02:27:09;;;;;;;10.27;6.75;;;;;;;15.08;76.66;98999.09;5028690;28;20060;-67
2021/08/01 02:29:36;;;;;;;8.15;6.32;;;;;;;15.10;76.50;98997.16;5029250;28;20128;-67
2021/08/01 02:32:01;;;;;;;15.38;7.80;;;;;;;15.12;76.49;98994.41;5028757;28;20033;-67
2021/08/01 02:34:28;;;;;;;10.48;6.97;;;;;;;15.12;76.69;98999.72;5027644;28;20033;-67
2021/08/01 02:36:53;;;;;;;10.75;6.25;;;;;;;15.11;76.55;98998.00;5028141;28;20401;-67
2021/08/01 02:39:20;;;;;;;8.52;6.30;;;;;;;15.15;76.33;98996.81;5029408;28;20034;-67
2021/08/01 02:41:47;;;;;;;8.32;6.03;;;;;;;15.13;76.25;99002.22;5028669;28;20033;-67
2021/08/01 02:44:20;;;;;;;7.60;6.47;;;;;;;15.14;76.17;99003.09;5028766;28;20489;-67
2021/08/01 02:46:47;;;;;;;10.63;6.13;;;;;;;15.13;76.10;98999.56;5027962;28;20091;-67
2021/08/01 02:49:18;;;;;;;12.43;5.70;;;;;;;15.16;76.13;98995.81;5010381;28;20042;-67
2021/08/01 02:51:48;;;;;;;10.32;6.20;;;;;;;15.15;76.06;98996.81;4983311;28;20141;-67
2021/08/01 02:54:14;;;;;;;11.57;6.85;;;;;;;15.17;76.01;98995.72;5001611;28;20042;-67
2021/08/01 02:56:41;;;;;;;8.20;5.63;;;;;;;15.17;75.90;99001.03;5008037;28;20544;-67
2021/08/01 02:59:08;;;;;;;8.75;6.13;;;;;;;15.20;76.10;99000.75;5008385;28;20049;-67
2021/08/01 03:01:35;;;;;;;9.93;7.35;;;;;;;15.20;75.74;98997.28;4989387;28;20035;-67
2021/08/01 03:04:00;;;;;;;13.75;6.97;;;;;;;15.16;75.94;98998.47;4995717;28;20042;-67
2021/08/01 03:06:32;;;;;;;11.57;6.53;;;;;;;15.15;76.11;98996.81;5008955;28;20041;-67
2021/08/01 03:09:00;;;;;;;10.60;6.35;;;;;;;15.19;75.85;98999.09;4993483;28;20498;-67
2021/08/01 03:11:26;;;;;;;7.38;5.85;;;;;;;15.20;75.83;99003.41;4993415;28;20482;-67
2021/08/01 03:13:51;;;;;;;11.88;6.68;;;;;;;15.23;75.77;99004.97;4997491;28;20052;-67
2021/08/01 03:16:16;;;;;;;9.40;6.03;;;;;;;15.21;75.88;99005.13;5012392;28;20041;-68
2021/08/01 03:18:41;;;;;;;14.48;8.52;;;;;;;15.20;75.46;99007.88;5012653;28;20030;-67
2021/08/01 03:21:07;;;;;;;10.60;7.28;;;;;;;15.21;75.79;99006.91;5013013;28;20038;-67
2021/08/01 03:23:32;;;;;;;9.48;7.10;;;;;;;15.24;75.76;99012.00;5012724;28;20041;-67
2021/08/01 03:25:57;;;;;;;13.35;7.25;;;;;;;15.28;75.88;99012.56;5012620;28;20040;-67
2021/08/01 03:28:23;;;;;;;10.43;6.35;;;;;;;15.30;75.55;99015.97;5012498;28;20041;-67
2021/08/01 03:30:48;;;;;;;12.00;7.43;;;;;;;15.31;75.21;99015.84;5012608;28;20052;-66
2021/08/01 03:33:13;;;;;;;14.18;7.72;;;;;;;15.34;75.22;99001.47;5012809;28;20038;-67
2021/08/01 03:35:39;;;;;;;19.92;7.65;;;;;;;15.33;75.33;99011.22;5012285;28;20034;-66
2021/08/01 03:38:04;;;;;;;14.98;7.75;;;;;;;15.28;75.34;99009.91;5011535;28;20594;-66
2021/08/01 03:40:29;;;;;;;13.30;7.35;;;;;;;15.22;75.51;98998.84;5000311;28;20057;-66
2021/08/01 03:42:55;;;;;;;16.45;8.93;;;;;;;15.16;75.78;99003.78;4992644;28;20575;-66
2021/08/01 03:45:20;;;;;;;17.52;7.18;;;;;;;15.14;75.80;99005.75;4993158;28;20053;-66
2021/08/01 03:47:45;;;;;;;10.20;6.70;;;;;;;15.11;75.85;99005.97;4991865;28;20061;-66
2021/08/01 03:50:11;;;;;;;13.02;7.22;;;;;;;15.11;75.80;99020.13;4992709;28;20486;-66
2021/08/01 03:52:37;;;;;;;13.15;7.68;;;;;;;15.08;75.82;99003.56;4992844;28;20049;-68
2021/08/01 03:55:03;;;;;;;10.75;7.32;;;;;;;15.04;75.99;99005.63;4992929;28;20520;-67
2021/08/01 03:57:29;;;;;;;9.25;7.20;;;;;;;15.02;76.15;99010.22;4991647;28;20502;-66
2021/08/01 03:59:54;;;;;;;11.70;8.82;;;;;;;15.00;75.99;99009.50;4992619;28;20112;-67
2021/08/01 04:02:19;;;;;;;12.15;7.18;;;;;;;15.00;75.96;98998.88;4992544;28;20085;-66
2021/08/01 04:04:45;;;;;;;13.27;7.15;;;;;;;14.99;75.79;99002.50;4991023;28;20134;-66
2021/08/01 04:07:10;;;;;;;11.35;6.97;;;;;;;14.99;75.86;99005.16;4991821;28;20042;-66
2021/08/01 04:09:35;;;;;;;14.32;8.85;;;;;;;14.96;75.94;99006.25;4992539;28;20042;-66
2021/08/01 04:12:01;;;;;;;11.75;7.47;;;;;;;14.92;75.91;99003.97;4992366;28;20121;-66
2021/08/01 04:14:30;;;;;;;12.15;7.13;;;;;;;14.89;76.18;99005.06;4992225;28;20102;-66
2021/08/01 04:16:55;;;;;;;15.23;8.45;;;;;;;14.88;75.78;99002.50;4990885;28;20069;-66
2021/08/01 04:19:20;;;;;;;11.20;8.63;;;;;;;14.80;76.28;99003.13;4996017;28;20072;-66
2021/08/01 04:21:46;;;;;;;13.88;8.45;;;;;;;14.81;76.06;99007.47;5000912;28;20456;-67
2021/08/01 04:24:11;;;;;;;8.68;6.97;;;;;;;14.80;76.27;99006.63;5007713;28;20145;-67
2021/08/01 04:26:37;;;;;;;12.30;8.32;;;;;;;14.80;76.31;99009.28;5030843;28;20026;-67
2021/08/01 04:29:03;;;;;;;9.90;7.95;;;;;;;14.79;75.82;99007.59;5031807;28;20037;-67
2021/08/01 04:31:28;;;;;;;11.63;8.70;;;;;;;14.76;75.75;99010.47;5031538;28;20033;-67
2021/08/01 04:33:54;;;;;;;10.68;7.97;;;;;;;14.72;76.16;99014.34;5014097;28;20045;-67
2021/08/01 04:36:19;;;;;;;11.23;8.20;;;;;;;14.74;76.65;99014.22;5031280;28;20543;-67
2021/08/01 04:38:44;;;;;;;11.88;7.32;;;;;;;14.72;76.55;99011.69;5031206;28;20030;-67
2021/08/01 04:41:10;;;;;;;14.07;8.02;;;;;;;14.73;76.44;99005.41;5031223;28;20505;-67
2021/08/01 04:43:35;;;;;;;10.20;7.40;;;;;;;14.71;76.55;99004.69;5031348;28;20089;-67
2021/08/01 04:46:00;;;;;;;12.45;8.00;;;;;;;14.61;76.82;98998.41;5031231;28;20076;-66
2021/08/01 04:48:26;;;;;;;10.25;7.65;;;;;;;14.62;76.52;99008.09;5030714;28;20030;-66
2021/08/01 04:50:51;;;;;;;15.05;8.68;;;;;;;14.60;76.86;99005.53;5031805;28;20033;-66
2021/08/01 04:53:17;;;;;;;11.85;7.20;;;;;;;14.60;76.69;99005.53;5031274;28;20041;-66
2021/08/01 04:55:42;;;;;;;14.70;7.60;;;;;;;14.58;76.68;98996.00;5031353;28;20029;-67
2021/08/01 04:58:07;;;;;;;12.07;7.35;;;;;;;14.56;76.48;99006.72;5030082;28;20033;-67
2021/08/01 05:00:33;;;;;;;15.80;7.93;;;;;;;14.55;76.14;99005.06;5030805;28;20054;-66
2021/08/01 05:03:02;;;;;;;13.98;6.72;;;;;;;14.57;76.49;99008.44;5030710;28;20112;-67
2021/08/01 05:05:34;;;;;;;9.70;6.43;;;;;;;14.53;76.28;99003.47;5030840;28;20056;-66
2021/08/01 05:08:00;;;;;;;10.93;7.05;;;;;;;14.50;76.31;99001.88;5030063;28;20115;-66
2021/08/01 05:10:25;;;;;;;14.43;8.05;;;;;;;14.54;76.45;99003.34;5030864;28;20037;-67
2021/08/01 05:12:51;;;;;;;11.00;7.68;;;;;;;14.65;75.94;99004.34;5030810;28;20458;-66
2021/08/01 05:15:16;;;;;;;14.82;8.00;;;;;;;14.74;75.44;99008.91;5030191;28;20458;-67
2021/08/01 05:17:42;;;;;;;11.05;7.75;;;;;;;14.74;75.54;99003.59;5028462;28;20037;-66
2021/08/01 05:20:08;;;;;;;13.95;7.47;;;;;;;14.79;75.32;99004.06;5030042;28;20045;-67
2021/08/01 05:22:33;;;;;;;11.57;7.47;;;;;;;14.82;75.20;99003.84;5030354;28;20497;-67
2021/08/01 05:24:58;;;;;;;12.02;8.38;;;;;;;14.86;74.76;99004.44;5029763;28;20032;-67
2021/08/01 05:27:24;;;;;;;10.82;7.78;;;;;;;14.89;74.64;99004.19;5027504;28;20060;-67
2021/08/01 05:29:49;;;;;;;10.38;7.82;;;;;;;14.90;74.57;98996.13;5030056;28;20056;-67
2021/08/01 05:32:14;;;;;;;9.77;7.40;;;;;;;14.91;74.66;98997.78;5030283;28;20053;-66
2021/08/01 05:34:40;;;;;;;17.65;7.78;;;;;;;14.91;74.39;98994.31;5030279;28;20618;-66
2021/08/01 05:37:05;;;;;;;14.55;8.05;;;;;;;14.93;74.09;98995.88;5029785;28;20456;-67
2021/08/01 05:39:34;;;;;;;12.38;7.68;;;;;;;14.93;73.86;98990.56;5029543;28;20045;-66
2021/08/01 05:42:00;;;;;;;15.02;7.93;;;;;;;14.94;74.15;98996.69;5029985;28;20030;-67
2021/08/01 05:44:25;;;;;;;12.15;10.45;;;;;;;14.97;74.02;98997.31;5029804;28;20059;-66
2021/08/01 05:46:51;;;;;;;11.65;7.88;;;;;;;15.02;74.11;98989.00;5029569;28;20067;-67
2021/08/01 05:49:16;;;;;;;10.90;7.70;;;;;;;15.07;73.65;98988.63;5030082;28;20173;-67
2021/08/01 05:51:41;;;;;;;15.00;8.30;;;;;;;15.12;73.18;98989.94;5030100;28;20447;-67
2021/08/01 05:54:07;;;;;;;12.90;6.88;;;;;;;15.13;73.09;98988.94;5030397;28;20061;-66
2021/08/01 05:56:32;;;;;;;13.23;7.50;;;;;;;15.14;72.94;98990.66;5029400;28;20049;-66
2021/08/01 05:58:57;;;;;;;12.45;6.43;;;;;;;15.18;72.66;98996.53;5029797;28;20501;-66
2021/08/01 06:01:24;;;;;;;9.57;6.88;;;;;;;15.22;72.28;98990.88;5030316;28;20052;-67
2021/08/01 06:03:50;;;;;;;12.18;5.68;;;;;;;15.23;71.85;98994.34;5030114;28;20397;-68
2021/08/01 06:06:24;;;;;;;17.88;6.78;;;;;;;15.24;71.80;98994.25;5030230;28;20030;-68
2021/08/01 06:08:52;;;;;;;8.75;5.90;;;;;;;15.28;71.27;98991.34;5028171;28;20405;-69
2021/08/01 06:11:20;;;;;;;10.23;6.70;;;;;;;15.29;71.36;98995.69;5029449;28;20042;-67
2021/08/01 06:13:45;;;;;;;11.23;5.78;;;;;;;15.37;71.19;99006.53;5029061;28;20461;-67
2021/08/01 06:16:12;;;;;;;13.80;5.60;;;;;;;15.37;70.50;98996.75;5029330;28;20077;-67
2021/08/01 06:18:38;;;;;;;10.43;5.18;;;;;;;15.40;70.62;98993.00;5028502;28;20033;-67
2021/08/01 06:21:08;;;;;;;11.05;5.82;;;;;;;15.49;70.44;98996.72;5029311;28;20037;-67
2021/08/01 06:23:36;;;;;;;10.07;6.03;;;;;;;15.58;70.03;98990.63;5028659;28;20037;-68
2021/08/01 06:26:02;;;;;;;10.50;4.72;;;;;;;15.66;69.80;98994.34;5028836;28;20121;-67
2021/08/01 06:28:27;;;;;;;7.40;4.60;;;;;;;15.72;69.81;98986.88;5028507;28;20030;-68
2021/08/01 06:30:53;;;;;;;7.05;4.03;;;;;;;15.74;69.49;98992.91;5029662;28;20033;-67
2021/08/01 06:33:18;;;;;;;7.45;4.53;;;;;;;15.85;69.51;98996.34;5029020;28;20040;-66
2021/08/01 06:35:44;;;;;;;9.43;5.15;;;;;;;15.91;68.98;98994.97;5028972;28;20044;-67
2021/08/01 06:38:10;;;;;;;9.02;4.63;;;;;;;15.99;69.21;99000.50;5028399;28;20031;-67
2021/08/01 06:40:35;;;;;;;11.13;4.47;;;;;;;16.08;68.71;98998.88;5029013;28;20120;-66
2021/08/01 06:43:00;;;;;;;7.35;4.35;;;;;;;16.00;68.67;98994.22;5029263;28;20171;-67
2021/08/01 06:45:26;;;;;;;6.80;4.25;;;;;;;15.96;68.21;98998.09;5028888;28;20183;-66
2021/08/01 06:47:51;;;;;;;12.77;5.15;;;;;;;15.88;68.31;99006.72;5028666;28;20507;-66
2021/08/01 06:50:19;;;;;;;6.95;4.00;;;;;;;15.96;68.49;99007.91;5028892;28;20025;-66
2021/08/01 06:52:46;;;;;;;10.93;5.28;;;;;;;16.00;67.84;98998.69;5028869;28;20169;-67
2021/08/01 06:55:12;;;;;;;7.72;4.72;;;;;;;15.96;67.92;98998.09;5028479;28;20056;-67
2021/08/01 06:57:37;;;;;;;5.63;3.88;;;;;;;15.99;68.20;99010.28;5027967;28;20033;-67
2021/08/01 07:00:04;;;;;;;10.25;4.63;;;;;;;15.94;67.51;99009.84;5028581;28;20083;-67
2021/08/01 07:02:29;;;;;;;8.93;3.45;;;;;;;15.86;67.58;99008.66;5028520;28;20393;-66
2021/08/01 07:04:57;;;;;;;7.90;5.25;;;;;;;15.84;67.37;99017.72;5029098;28;20117;-66
2021/08/01 07:07:22;;;;;;;8.63;3.83;;;;;;;15.89;67.65;99019.03;5026568;28;20039;-66
2021/08/01 07:09:48;;;;;;;7.18;4.07;;;;;;;15.94;67.42;99018.66;5028732;28;20464;-66
2021/08/01 07:12:13;;;;;;;4.75;3.67;;;;;;;16.01;67.40;99022.47;5028725;28;20033;-67
2021/08/01 07:14:38;;;;;;;7.85;3.60;;;;;;;16.09;66.85;99022.66;5028655;28;20037;-66
2021/08/01 07:17:04;;;;;;;9.43;3.58;;;;;;;16.15;66.44;99012.50;5028094;28;20033;-67
2021/08/01 07:19:29;;;;;;;7.03;3.88;;;;;;;16.10;66.56;99012.91;5028777;28;20084;-66
2021/08/01 07:21:54;;;;;;;6.18;4.07;;;;;;;16.17;66.70;99021.19;5029056;28;20037;-66
2021/08/01 07:24:20;;;;;;;4.93;3.22;;;;;;;16.20;66.65;99021.78;5028575;28;20044;-66
2021/08/01 07:26:47;;;;;;;7.10;4.55;;;;;;;16.26;67.19;99028.38;5027702;28;20069;-66
2021/08/01 07:29:13;;;;;;;6.15;3.97;;;;;;;16.29;66.74;99031.66;5028365;28;20029;-66
2021/08/01 07:31:38;;;;;;;7.70;4.50;;;;;;;16.26;66.47;99034.53;5028788;28;20091;-67
2021/08/01 07:34:03;;;;;;;6.68;3.55;;;;;;;16.24;66.58;99030.31;5027876;28;20409;-67
2021/08/01 07:36:29;;;;;;;10.95;4.55;;;;;;;16.19;66.43;99036.03;5027795;28;20053;-66
2021/08/01 07:38:54;;;;;;;7.57;4.32;;;;;;;16.22;66.73;99030.47;5027560;28;20048;-67
2021/08/01 07:41:19;;;;;;;7.00;4.05;;;;;;;16.20;66.64;99028.91;5020719;28;20030;-67
2021/08/01 07:43:45;;;;;;;8.80;3.75;;;;;;;16.21;67.14;99030.59;5028841;28;20033;-69
2021/08/01 07:46:10;;;;;;;11.00;4.65;;;;;;;16.19;66.78;99036.03;5028042;28;20509;-67
2021/08/01 07:48:36;;;;;;;11.25;4.18;;;;;;;16.13;67.19;99027.75;5027785;28;20080;-66
2021/08/01 07:51:01;;;;;;;10.90;4.80;;;;;;;16.07;67.30;99037.94;5028079;28;20036;-67
2021/08/01 07:53:27;;;;;;;5.82;3.80;;;;;;;16.07;67.51;99035.28;5054976;28;20037;-68
2021/08/01 07:55:52;;;;;;;12.75;5.13;;;;;;;16.09;67.38;99038.63;5032490;28;20060;-67
2021/08/01 07:58:18;;;;;;;16.23;4.15;;;;;;;16.12;67.54;99034.88;5030854;28;20029;-67
2021/08/01 08:00:43;;;;;;;7.90;4.20;;;;;;;16.16;67.29;99035.47;5031252;28;20053;-66
2021/08/01 08:03:08;;;;;;;7.38;4.80;;;;;;;16.10;67.10;99029.69;5031579;28;20030;-67
2021/08/01 08:05:36;;;;;;;10.23;4.40;;;;;;;16.20;67.12;99034.25;5031609;28;20041;-67
2021/08/01 08:08:01;;;;;;;9.00;4.30;;;;;;;16.29;66.71;99033.44;5030962;28;20033;-67
2021/08/01 08:10:27;;;;;;;7.22;4.85;;;;;;;16.40;66.14;99024.56;5031545;28;20438;-67
2021/08/01 08:12:52;;;;;;;10.30;5.25;;;;;;;16.60;65.63;99033.50;5031957;28;20060;-68
2021/08/01 08:15:18;;;;;;;11.85;6.45;;;;;;;16.80;65.65;99029.97;5030745;28;20060;-66
2021/08/01 08:17:43;;;;;;;7.07;4.43;;;;;;;16.85;64.92;99034.88;5029317;28;20033;-66
2021/08/01 08:20:10;;;;;;;7.18;4.43;;;;;;;16.91;65.08;99039.69;5017784;28;20038;-66
2021/08/01 08:22:36;;;;;;;7.88;4.85;;;;;;;16.96;64.79;99034.81;5011131;28;20026;-67
2021/08/01 08:25:05;;;;;;;7.97;5.55;;;;;;;17.02;64.80;99034.25;5011336;28;20034;-67
2021/08/01 08:27:31;;;;;;;11.88;5.85;;;;;;;17.06;65.03;99034.84;5010124;28;20505;-66
2021/08/01 08:29:56;;;;;;;9.15;4.57;;;;;;;17.07;64.48;99033.84;5010366;28;20066;-66
2021/08/01 08:32:22;;;;;;;8.93;4.65;;;;;;;17.07;64.65;99031.19;5012295;28;20030;-66
2021/08/01 08:34:47;;;;;;;7.47;5.05;;;;;;;17.32;63.91;99024.50;5011324;28;20045;-66
2021/08/01 08:37:12;;;;;;;13.10;6.82;;;;;;;17.52;63.41;99031.59;5010707;28;20049;-67
2021/08/01 08:39:38;;;;;;;10.10;5.38;;;;;;;17.67;63.20;99033.81;5010687;28;20075;-66
2021/08/01 08:42:04;;;;;;;10.88;5.13;;;;;;;17.89;62.99;99030.06;5017674;28;20025;-66
2021/08/01 08:44:29;;;;;;;9.25;5.75;;;;;;;18.05;62.31;99030.34;5010157;28;20092;-66
2021/08/01 08:46:56;;;;;;;11.65;4.70;;;;;;;18.15;61.87;99038.34;4987561;28;20120;-67
2021/08/01 08:49:22;;;;;;;7.13;5.10;;;;;;;17.99;62.30;99033.56;4985966;28;20137;-66
2021/08/01 08:51:51;;;;;;;9.95;5.78;;;;;;;17.98;62.24;99047.91;4985797;28;20062;-66
2021/08/01 08:54:31;;;;;;;7.45;4.93;;;;;;;17.99;62.13;99039.78;4985923;28;20030;-65
2021/08/01 08:57:01;;;;;;;8.55;4.47;;;;;;;18.23;61.89;99039.31;4987122;28;20034;-66
2021/08/01 08:59:26;;;;;;;7.97;5.22;;;;;;;18.26;61.37;99043.50;4986469;28;20034;-66
2021/08/01 09:01:52;;;;;;;9.00;4.63;;;;;;;18.28;61.50;99046.03;5000589;28;20794;-66
2021/08/01 09:04:18;;;;;;;9.30;4.90;;;;;;;18.29;61.72;99055.75;5000721;28;20504;-66
2021/08/01 09:06:44;;;;;;;12.15;5.22;;;;;;;18.30;61.41;99052.09;5004098;28;20045;-67
2021/08/01 09:09:10;;;;;;;9.63;5.32;;;;;;;18.27;62.00;99047.88;4996000;28;20357;-67
2021/08/01 09:11:36;;;;;;;8.38;5.43;;;;;;;18.27;62.01;99053.22;5004365;28;20041;-69
2021/08/01 09:14:02;;;;;;;10.23;5.72;;;;;;;18.14;62.34;99056.19;5004142;28;20569;-67
2021/08/01 09:16:51;;;;;;;8.60;4.80;;;;;;;18.23;61.97;99065.16;5002591;28;20133;-67
2021/08/01 09:19:29;;;;;;;11.15;6.07;;;;;;;18.22;62.16;99056.31;4996403;28;20033;-66
2021/08/01 09:22:10;;;;;;;7.88;5.15;;;;;;;18.63;61.35;99061.41;4995186;28;20038;-70
2021/08/01 09:24:36;;;;;;;14.10;6.53;;;;;;;18.71;60.65;99060.72;5003389;28;20175;-71
2021/08/01 09:27:03;;;;;;;9.55;4.95;;;;;;;18.57;61.07;99064.69;5009827;28;20123;-72
2021/08/01 09:29:30;;;;;;;9.98;5.30;;;;;;;18.67;61.19;99054.81;5018630;28;20037;-70
2021/08/01 09:31:58;;;;;;;12.65;5.68;;;;;;;18.67;60.46;99063.66;5005101;28;20040;-71
2021/08/01 09:34:25;;;;;;;7.47;4.15;;;;;;;18.60;60.67;99065.22;5004660;28;20033;-71
2021/08/01 09:36:59;;;;;;;11.20;5.72;;;;;;;18.47;60.74;99061.19;5003394;28;20038;-71
2021/08/01 09:39:26;;;;;;;8.50;5.07;;;;;;;18.37;60.96;99059.38;5003326;28;20044;-70
2021/08/01 09:42:02;;;;;;;7.82;4.70;;;;;;;18.50;60.73;99063.56;5004869;28;20182;-70
2021/08/01 09:44:28;;;;;;;11.35;5.03;;;;;;;18.48;60.55;99066.38;5004563;28;20065;-70
2021/08/01 09:46:55;;;;;;;10.05;5.32;;;;;;;18.75;60.55;99062.09;5000040;28;20120;-71
2021/08/01 09:49:28;;;;;;;6.22;4.22;;;;;;;18.99;59.55;99070.47;5002967;28;20037;-71
2021/08/01 09:51:56;;;;;;;9.43;5.60;;;;;;;18.95;59.93;99077.09;5002263;28;20103;-71
2021/08/01 09:54:24;;;;;;;8.82;5.07;;;;;;;19.25;58.63;99067.13;4985337;28;20046;-70
2021/08/01 09:56:58;;;;;;;9.45;4.55;;;;;;;19.46;58.27;99066.84;5002062;28;20040;-71
2021/08/01 09:59:25;;;;;;;6.20;3.80;;;;;;;20.87;53.54;99058.06;5004077;28;20129;-71
2021/08/01 10:01:57;;;;;;;6.90;4.68;;;;;;;22.19;50.88;99064.66;5001175;28;20052;-72
2021/08/01 10:04:23;;;;;;;9.00;4.97;;;;;;;22.85;49.21;99054.69;5002346;28;20050;-71
2021/08/01 10:07:04;;;;;;;5.25;4.28;;;;;;;22.88;48.76;99051.66;5003175;28;20034;-71
2021/08/01 10:09:29;;;;;;;10.60;4.15;;;;;;;22.41;49.31;99047.88;5003752;28;20069;-72
2021/08/01 10:11:55;;;;;;;8.88;4.22;;;;;;;21.68;51.06;99047.81;5003425;28;20068;-71
2021/08/01 10:14:21;;;;;;;8.90;4.55;;;;;;;21.42;52.23;99060.31;5003470;28;20057;-72
2021/08/01 10:16:46;;;;;;;8.40;4.50;;;;;;;20.83;53.84;99053.19;5002285;28;20046;-72
2021/08/01 10:19:12;;;;;;;7.50;4.85;;;;;;;20.60;54.87;99053.72;5001612;28;20038;-72
2021/08/01 10:21:39;;;;;;;6.63;3.95;;;;;;;20.25;56.23;99065.31;5003904;28;20037;-72
2021/08/01 10:24:06;;;;;;;8.57;5.00;;;;;;;19.79;57.23;99065.41;5003351;28;20033;-71
2021/08/01 10:26:37;;;;;;;12.35;4.85;;;;;;;19.36;58.64;99061.56;5002801;28;20034;-71
2021/08/01 10:29:07;;;;;;;10.23;4.75;;;;;;;19.12;59.23;99064.78;5002944;28;20569;-71
2021/08/01 10:31:35;;;;;;;7.07;3.83;;;;;;;19.07;59.96;99067.91;5001950;28;20030;-72
2021/08/01 10:34:10;;;;;;;8.80;3.72;;;;;;;19.07;60.11;99065.25;5003358;28;20061;-71
2021/08/01 10:36:37;;;;;;;11.18;3.92;;;;;;;19.17;59.98;99061.66;5002784;28;20037;-71
2021/08/01 10:39:05;;;;;;;8.05;3.83;;;;;;;19.24;59.43;99060.91;5003362;28;20038;-71
2021/08/01 10:41:33;;;;;;;10.02;4.22;;;;;;;19.19;59.69;99062.38;4988993;28;20185;-71
2021/08/01 10:44:08;;;;;;;8.10;5.00;;;;;;;19.00;61.12;99060.63;4964974;28;20027;-70
2021/08/01 10:46:34;;;;;;;;;;;;;;;18.89;61.42;99067.00;4968096;28;20392;-70
2021/08/01 10:49:02;;;;;;;7.50;4.38;;;;;;;18.80;61.34;99063.38;4983555;28;19925;-70
2021/08/01 10:51:29;;;;;;;7.32;4.65;;;;;;;18.78;61.11;99072.50;4984309;28;20489;-71
2021/08/01 10:54:20;;;;;;;8.43;5.47;;;;;;;19.14;60.17;99067.31;4983063;28;20046;-71
2021/08/01 10:56:47;;;;;;;8.32;4.30;;;;;;;19.66;58.04;99057.72;4991389;28;20045;-71
2021/08/01 10:59:43;;;;;;;6.10;4.10;;;;;;;19.86;57.67;99060.28;5003286;28;20503;-66
2021/08/01 11:02:13;;;;;;;;;;;;;;;19.72;57.41;99057.16;4984319;28;20042;-64
2021/08/01 11:04:38;;;;;;;9.20;4.03;;;;;;;19.63;58.37;99059.84;4983844;28;20011;-67
2021/08/01 11:07:04;;;;;;;9.45;5.13;;;;;;;19.59;58.77;99054.00;4982825;28;20510;-67
2021/08/01 11:09:29;;;;;;;6.53;3.00;;;;;;;19.81;58.68;99050.03;4999880;28;20045;-67
2021/08/01 11:12:20;;;;;;;8.98;4.28;;;;;;;20.02;58.11;99047.06;5003948;28;20034;-72
2021/08/01 11:14:50;;;;;;;9.48;4.57;;;;;;;19.99;57.96;99046.53;5003003;28;20041;-72
2021/08/01 11:17:20;;;;;;;6.93;4.93;;;;;;;19.81;58.31;99039.31;5002377;28;20062;-71
2021/08/01 11:19:46;;;;;;;9.15;3.97;;;;;;;19.58;59.29;99043.44;5002599;28;20034;-71
2021/08/01 11:22:51;;;;;;;8.90;5.07;;;;;;;19.66;59.45;99046.19;5002031;28;20084;-72
2021/08/01 11:25:23;;;;;;;5.95;3.47;;;;;;;19.64;59.50;99041.00;5002834;28;20444;-71
2021/08/01 11:28:10;;;;;;;5.90;3.53;;;;;;;19.62;59.48;99031.44;5004949;28;20049;-72
2021/08/01 11:30:53;;;;;;;8.52;5.82;;;;;;;19.83;58.91;99034.66;5007271;28;20040;-71
2021/08/01 11:33:32;;;;;;;9.82;5.30;;;;;;;20.43;56.98;99025.97;5006899;28;20124;-71